TimeEDT,TemperatureF,Dew PointF,Humidity,Sea Level PressureIn,VisibilityMPH,Wind Direction,Wind SpeedMPH,Gust SpeedMPH,PrecipitationIn,Events,Conditions,WindDirDegrees,DateUTC
12:53 AM,69.1,62.1,78,30.07,10.0,Calm,Calm,-,N/A,,Clear,0,2013-04-03 04:53:00
1:53 AM,66.9,62.1,84,30.06,10.0,ENE,3.5,-,N/A,,Clear,70,2013-04-03 05:53:00
2:53 AM,66.9,63.0,87,30.04,10.0,ESE,5.8,-,N/A,,Clear,110,2013-04-03 06:53:00
3:53 AM,66.9,63.0,87,30.02,10.0,East,4.6,-,N/A,,Clear,100,2013-04-03 07:53:00
4:53 AM,66.0,63.0,90,30.01,10.0,ESE,4.6,-,N/A,,Clear,110,2013-04-03 08:53:00
5:53 AM,66.0,63.0,90,30.01,10.0,SE,5.8,-,N/A,,Clear,130,2013-04-03 09:53:00
6:53 AM,66.0,63.0,90,30.03,10.0,ESE,4.6,-,N/A,,Clear,120,2013-04-03 10:53:00
7:53 AM,66.0,63.0,90,30.05,8.0,East,3.5,-,N/A,,Clear,100,2013-04-03 11:53:00
8:53 AM,71.1,64.9,81,30.04,10.0,SE,9.2,-,N/A,,Clear,140,2013-04-03 12:53:00
9:53 AM,75.9,66.0,71,30.04,10.0,SSE,13.8,-,N/A,,Clear,160,2013-04-03 13:53:00
10:53 AM,80.1,63.0,56,30.04,10.0,SE,12.7,20.7,N/A,,Clear,130,2013-04-03 14:53:00
11:53 AM,82.9,60.1,46,30.02,10.0,SSE,12.7,-,N/A,,Clear,150,2013-04-03 15:53:00
12:53 PM,84.9,60.1,43,30.00,10.0,SE,10.4,20.7,N/A,,Clear,140,2013-04-03 16:53:00
1:53 PM,86.0,61.0,43,29.99,10.0,Variable,5.8,-,N/A,,Mostly Cloudy,0,2013-04-03 17:53:00
2:53 PM,86.0,64.9,49,29.97,10.0,SW,9.2,-,N/A,,Clear,220,2013-04-03 18:53:00
3:53 PM,84.9,66.0,53,29.96,10.0,South,10.4,-,N/A,,Clear,190,2013-04-03 19:53:00
4:53 PM,84.0,66.9,56,29.96,10.0,SSW,11.5,-,N/A,,Clear,210,2013-04-03 20:53:00
5:53 PM,82.0,66.0,58,29.97,10.0,SSW,11.5,-,N/A,,Clear,210,2013-04-03 21:53:00
6:53 PM,79.0,66.0,64,29.97,10.0,SSW,10.4,-,N/A,,Clear,200,2013-04-03 22:53:00
7:53 PM,77.0,64.0,64,29.97,10.0,South,9.2,-,N/A,,Clear,190,2013-04-03 23:53:00
8:53 PM,75.9,68.0,76,30.00,10.0,SSW,11.5,-,N/A,,Partly Cloudy,210,2013-04-04 00:53:00
9:53 PM,75.9,68.0,76,30.03,10.0,South,5.8,-,N/A,,Mostly Cloudy,180,2013-04-04 01:53:00
10:53 PM,75.0,69.1,82,30.04,10.0,South,6.9,-,N/A,,Mostly Cloudy,180,2013-04-04 02:53:00
11:53 PM,73.9,68.0,82,30.04,10.0,SE,4.6,-,N/A,,Scattered Clouds,130,2013-04-04 03:53:00